Webb City, Missouri
Current Conditions -  °F | °C
As of 3:53 AM on Thursday 23 Oct 2014 (Local Time) from KJLN Reporting Station
Broken Clouds Broken Clouds  
Wind Chill: 58°   Ceiling: 5000
Heat Index: 58°   Visibility: 10mi
Dew Point: 51°   Wind: 6mph
Humidity: 78%   Direction: 170°S
Pressure: 30.14"   Gusts: NA
Location:  37.15°N, 94.46°W
Report Text: KJLN 230853Z AUTO 17005KT 10SM BKN050 14/11 A3014 RMK AO2 SLP199 T01440106 53001
Loading
Personal Weather Stations






























Interactive Weather Map
Tropical Storm Tracking
New forecast layout! Learn more

10-Day Weather Forecast

Advertisements
Track Severe Weather on mobile